createdAt,value
2023-05-08T00:00:27.786Z,101797.21
2023-05-08T00:02:55.870Z,101801.43
2023-05-08T00:05:24.080Z,101798.55
2023-05-08T00:07:53.582Z,101797.67
2023-05-08T00:10:21.695Z,101803.91
2023-05-08T00:12:49.653Z,101801.43
2023-05-08T00:15:17.751Z,101799.37
2023-05-08T00:17:45.758Z,101797.34
2023-05-08T00:20:14.639Z,101797.34
2023-05-08T00:22:42.760Z,101800.22
2023-05-08T00:25:10.981Z,101800.55
2023-05-08T00:27:39.059Z,101798.55
2023-05-08T00:30:08.770Z,101801.04
2023-05-08T00:32:36.849Z,101801.89
2023-05-08T00:35:05.075Z,101796.98
2023-05-08T00:37:33.148Z,101800.71
2023-05-08T00:40:01.158Z,101800.71
2023-05-08T00:42:29.081Z,101809.18
2023-05-08T00:44:57.063Z,101808.46
2023-05-08T00:47:25.047Z,101809.67
2023-05-08T00:49:53.196Z,101800.71
2023-05-08T00:52:21.159Z,101799.50
2023-05-08T00:54:49.173Z,101799.86
2023-05-08T00:57:17.313Z,101799.01
2023-05-08T00:59:46.719Z,101794.11
2023-05-08T01:02:15.035Z,101792.93
2023-05-08T01:04:43.385Z,101794.95
2023-05-08T01:07:12.505Z,101793.26
2023-05-08T01:09:41.088Z,101794.47
2023-05-08T01:12:36.305Z,101792.08
2023-05-08T01:15:18.757Z,101785.02
2023-05-08T01:17:46.686Z,101799.01
2023-05-08T01:20:32.856Z,101805.59
2023-05-08T01:23:09.736Z,101795.31
2023-05-08T01:25:46.475Z,101790.38
2023-05-08T01:28:33.385Z,101804.77
2023-05-08T01:31:06.797Z,101800.55
2023-05-08T01:33:38.612Z,101806.92
2023-05-08T01:36:27.410Z,101804.44
2023-05-08T01:38:58.037Z,101799.50
2023-05-08T01:41:31.953Z,101800.35
2023-05-08T01:44:10.838Z,101802.02
2023-05-08T01:46:39.064Z,101801.17
2023-05-08T01:49:10.060Z,101798.81
2023-05-08T01:51:43.353Z,101797.15
2023-05-08T01:54:13.785Z,101808.62
2023-05-08T01:56:41.847Z,101809.48
2023-05-08T01:59:09.997Z,101811.96
2023-05-08T02:01:38.120Z,101809.93
2023-05-08T02:04:06.242Z,101816.54
2023-05-08T02:06:34.541Z,101820.27
2023-05-08T02:09:02.609Z,101815.36
2023-05-08T02:11:31.025Z,101817.71
2023-05-08T02:14:00.038Z,101812.80
2023-05-08T02:16:28.126Z,101804.18
2023-05-08T02:18:57.061Z,101811.96
2023-05-08T02:21:25.148Z,101816.90
2023-05-08T02:23:53.300Z,101810.81
2023-05-08T02:26:21.378Z,101816.17
2023-05-08T02:28:50.022Z,101812.97
2023-05-08T02:31:18.361Z,101816.17
2023-05-08T02:33:46.535Z,101819.55
2023-05-08T02:36:15.576Z,101819.19
2023-05-08T02:38:44.602Z,101812.97
2023-05-08T02:41:12.967Z,101819.19
2023-05-08T02:43:41.130Z,101812.48
2023-05-08T02:46:24.271Z,101815.85
2023-05-08T02:48:59.850Z,101811.27
2023-05-08T02:51:45.449Z,101816.66
2023-05-08T02:54:17.740Z,101819.91
2023-05-08T02:56:51.468Z,101819.91
2023-05-08T02:59:21.869Z,101824.80
2023-05-08T03:01:55.836Z,101813.66
2023-05-08T03:07:00.644Z,101813.66
2023-05-08T03:09:33.785Z,101817.71
2023-05-08T03:12:07.735Z,101810.29
2023-05-08T03:14:38.316Z,101814.02
2023-05-08T03:17:07.914Z,101807.05
2023-05-08T03:19:37.841Z,101806.23
2023-05-08T03:22:05.928Z,101797.96
2023-05-08T03:24:36.126Z,101804.57
2023-05-08T03:27:04.160Z,101802.87
2023-05-08T03:29:32.337Z,101800.35
2023-05-08T03:32:00.449Z,101808.95
2023-05-08T03:34:28.551Z,101805.26
2023-05-08T03:36:56.866Z,101806.92
2023-05-08T03:39:25.976Z,101809.80
2023-05-08T03:41:54.302Z,101812.35
2023-05-08T03:44:22.472Z,101808.62
2023-05-08T03:46:52.195Z,101806.59
2023-05-08T03:49:20.408Z,101816.05
2023-05-08T03:51:48.557Z,101817.71
2023-05-08T03:54:16.684Z,101807.77
2023-05-08T03:56:47.314Z,101809.48
2023-05-08T03:59:22.584Z,101821.67
2023-05-08T04:01:55.724Z,101821.31
2023-05-08T04:07:15.896Z,101821.31
2023-05-08T04:10:15.837Z,101824.19
2023-05-08T04:12:59.437Z,101817.26
2023-05-08T04:15:31.261Z,101823.01
2023-05-08T04:18:01.394Z,101825.49
2023-05-08T04:20:29.592Z,101832.10
2023-05-08T04:22:57.839Z,101829.22
2023-05-08T04:25:26.070Z,101827.03
2023-05-08T04:27:54.724Z,101835.80
2023-05-08T04:30:22.921Z,101841.09
2023-05-08T04:32:51.036Z,101840.24
2023-05-08T04:35:19.619Z,101839.88
2023-05-08T04:37:47.828Z,101835.34
2023-05-08T04:40:16.130Z,101842.76
2023-05-08T04:42:45.014Z,101843.58
2023-05-08T04:45:13.587Z,101841.55
2023-05-08T04:47:42.101Z,101844.91
2023-05-08T04:50:10.639Z,101849.00
2023-05-08T04:52:39.044Z,101844.91
2023-05-08T04:55:07.623Z,101847.47
2023-05-08T04:57:36.081Z,101852.34
2023-05-08T05:00:04.832Z,101847.07
2023-05-08T05:02:33.091Z,101838.97
2023-05-08T05:05:02.663Z,101841.84
2023-05-08T05:07:30.801Z,101845.18
2023-05-08T05:09:59.014Z,101839.95
2023-05-08T05:12:27.245Z,101837.07
2023-05-08T05:14:55.427Z,101839.59
2023-05-08T05:17:23.616Z,101841.25
2023-05-08T05:19:53.378Z,101847.01
2023-05-08T05:22:21.634Z,101839.59
2023-05-08T05:24:49.742Z,101850.73
2023-05-08T05:27:20.602Z,101844.49
2023-05-08T05:29:49.447Z,101847.01
2023-05-08T05:32:17.614Z,101851.95
2023-05-08T05:34:45.857Z,101853.29
2023-05-08T05:37:13.978Z,101848.02
2023-05-08T05:39:42.164Z,101855.48
2023-05-08T05:42:10.621Z,101854.27
2023-05-08T05:44:38.877Z,101864.93
2023-05-08T05:47:07.510Z,101860.02
2023-05-08T05:49:35.996Z,101866.73
2023-05-08T05:52:04.162Z,101865.91
2023-05-08T05:54:32.464Z,101867.25
2023-05-08T05:57:00.718Z,101867.25
2023-05-08T05:59:29.111Z,101872.61
2023-05-08T06:01:57.410Z,101872.61
2023-05-08T06:04:25.669Z,101868.55
2023-05-08T06:06:53.784Z,101878.16
2023-05-08T06:09:21.982Z,101870.74
2023-05-08T06:11:50.193Z,101874.44
2023-05-08T06:14:18.631Z,101873.23
2023-05-08T06:16:47.266Z,101872.41
2023-05-08T06:19:15.557Z,101878.16
2023-05-08T06:21:43.726Z,101876.60
2023-05-08T06:24:11.980Z,101874.24
2023-05-08T06:26:40.186Z,101879.12
2023-05-08T06:29:08.367Z,101878.79
2023-05-08T06:31:36.749Z,101880.95
2023-05-08T06:34:05.307Z,101880.59
2023-05-08T06:36:33.665Z,101876.99
2023-05-08T06:39:01.832Z,101881.93
2023-05-08T06:41:30.063Z,101873.79
2023-05-08T06:43:58.304Z,101880.03
2023-05-08T06:46:26.975Z,101876.96
2023-05-08T06:48:55.373Z,101879.51
2023-05-08T06:51:24.680Z,101877.52
2023-05-08T06:53:52.941Z,101878.59
2023-05-08T06:56:21.083Z,101888.11
2023-05-08T06:59:00.489Z,101887.13
2023-05-08T07:01:35.658Z,101889.77
2023-05-08T07:04:03.984Z,101890.98
2023-05-08T07:06:35.573Z,101887.84
2023-05-08T07:09:04.283Z,101890.37
2023-05-08T07:11:32.869Z,101881.83
2023-05-08T07:14:01.575Z,101889.84
2023-05-08T07:16:29.653Z,101888.73
2023-05-08T07:18:57.917Z,101893.99
2023-05-08T07:21:26.511Z,101898.44
2023-05-08T07:23:55.192Z,101891.34
2023-05-08T07:26:23.904Z,101895.76
2023-05-08T07:28:52.688Z,101901.05
2023-05-08T07:31:20.980Z,101900.20
2023-05-08T07:33:49.342Z,101895.30
2023-05-08T07:36:17.502Z,101889.88
2023-05-08T07:38:45.614Z,101892.55
2023-05-08T07:41:13.807Z,101892.16
2023-05-08T07:43:42.421Z,101898.44
2023-05-08T07:46:10.590Z,101889.80
2023-05-08T07:48:38.740Z,101892.69
2023-05-08T07:51:07.055Z,101893.17
2023-05-08T07:53:35.324Z,101897.85
2023-05-08T07:56:03.313Z,101893.80
2023-05-08T07:58:31.672Z,101891.37
2023-05-08T08:00:59.806Z,101893.93
2023-05-08T08:03:28.206Z,101895.10
2023-05-08T08:05:57.055Z,101899.68
2023-05-08T08:08:25.535Z,101900.50
2023-05-08T08:10:54.536Z,101899.29
2023-05-08T08:13:22.908Z,101903.87
2023-05-08T08:15:51.299Z,101896.91
2023-05-08T08:18:19.916Z,101901.45
2023-05-08T08:20:48.901Z,101899.59
2023-05-08T08:23:17.496Z,101904.85
2023-05-08T08:25:45.808Z,101901.74
2023-05-08T08:28:13.996Z,101900.86
2023-05-08T08:30:42.531Z,101897.30
2023-05-08T08:33:10.947Z,101900.66
2023-05-08T08:35:39.630Z,101904.75
2023-05-08T08:38:07.800Z,101894.91
2023-05-08T08:40:43.392Z,101900.08
2023-05-08T08:43:11.818Z,101896.12
2023-05-08T08:45:40.542Z,101898.27
2023-05-08T08:48:12.891Z,101901.41
2023-05-08T08:50:44.399Z,101901.32
2023-05-08T08:53:17.746Z,101901.52
2023-05-08T08:55:47.777Z,101899.84
2023-05-08T08:58:25.232Z,101899.62
2023-05-08T09:00:54.051Z,101906.68
2023-05-08T09:03:22.438Z,101904.69
2023-05-08T09:05:53.481Z,101903.73
2023-05-08T09:08:21.744Z,101901.12
2023-05-08T09:10:50.060Z,101897.98
2023-05-08T09:13:20.660Z,101893.53
2023-05-08T09:15:49.105Z,101892.69
2023-05-08T09:18:17.431Z,101892.06
2023-05-08T09:20:46.263Z,101885.13
2023-05-08T09:23:16.126Z,101891.61
2023-05-08T09:25:48.447Z,101889.05
2023-05-08T09:28:17.854Z,101895.04
2023-05-08T09:30:53.322Z,101890.37
2023-05-08T09:33:22.087Z,101893.11
2023-05-08T09:35:50.408Z,101894.45
2023-05-08T09:38:47.847Z,101894.26
2023-05-08T09:41:17.550Z,101904.72
2023-05-08T09:43:46.423Z,101892.45
2023-05-08T09:46:20.768Z,101900.01
2023-05-08T09:48:49.210Z,101904.29
2023-05-08T09:51:19.254Z,101909.85
2023-05-08T09:53:47.747Z,101910.83
2023-05-08T09:56:15.974Z,101917.24
2023-05-08T09:58:45.034Z,101918.94
2023-05-08T10:01:30.387Z,101922.38
2023-05-08T10:03:58.938Z,101903.31
2023-05-08T10:06:27.403Z,101915.67
2023-05-08T10:09:09.542Z,101915.77
2023-05-08T10:11:37.737Z,101910.38
2023-05-08T10:14:06.051Z,101918.77
2023-05-08T10:16:38.668Z,101917.70
2023-05-08T10:19:08.581Z,101907.82
2023-05-08T10:21:39.050Z,101908.31
2023-05-08T10:24:07.820Z,101909.23
2023-05-08T10:26:35.899Z,101914.27
2023-05-08T10:29:09.982Z,101906.71
2023-05-08T10:31:38.264Z,101905.24
2023-05-08T10:34:06.623Z,101904.03
2023-05-08T10:36:34.783Z,101905.93
2023-05-08T10:39:02.998Z,101903.73
2023-05-08T10:41:31.243Z,101900.11
2023-05-08T10:44:01.136Z,101905.86
2023-05-08T10:46:50.530Z,101902.98
2023-05-08T10:49:31.628Z,101901.58
2023-05-08T10:52:20.143Z,101896.91
2023-05-08T10:55:25.604Z,101899.32
2023-05-08T10:58:13.052Z,101899.68
2023-05-08T11:01:02.437Z,101882.13
2023-05-08T11:03:33.028Z,101887.72
2023-05-08T11:06:02.224Z,101888.17
2023-05-08T11:08:31.252Z,101893.50
2023-05-08T11:11:06.536Z,101884.55
2023-05-08T11:13:52.125Z,101890.82
2023-05-08T11:16:20.278Z,101883.20
2023-05-08T11:19:17.048Z,101876.37
2023-05-08T11:22:13.220Z,101873.66
2023-05-08T11:24:42.716Z,101877.80
2023-05-08T11:27:11.080Z,101877.16
2023-05-08T11:29:40.349Z,101874.48
2023-05-08T11:32:09.277Z,101880.59
2023-05-08T11:34:58.440Z,101878.07
2023-05-08T11:37:27.088Z,101875.78
2023-05-08T11:39:55.379Z,101868.75
2023-05-08T11:42:26.399Z,101869.90
2023-05-08T11:45:11.765Z,101860.58
2023-05-08T11:47:45.103Z,101862.87
2023-05-08T11:50:14.394Z,101862.48
2023-05-08T11:52:43.883Z,101870.16
2023-05-08T11:55:13.167Z,101859.40
2023-05-08T11:57:41.569Z,101869.02
2023-05-08T12:00:13.725Z,101863.42
2023-05-08T12:02:43.736Z,101865.19
2023-05-08T12:05:12.343Z,101862.73
2023-05-08T12:07:47.960Z,101862.70
2023-05-08T12:10:17.339Z,101874.87
2023-05-08T12:12:45.925Z,101873.88
2023-05-08T12:15:15.399Z,101878.69
2023-05-08T12:17:44.089Z,101873.66
2023-05-08T12:20:16.029Z,101873.55
2023-05-08T12:22:44.993Z,101873.46
2023-05-08T12:25:14.401Z,101871.40
2023-05-08T12:27:42.845Z,101868.55
2023-05-08T12:30:12.758Z,101869.08
2023-05-08T12:32:44.828Z,101865.52
2023-05-08T12:35:13.788Z,101865.19
2023-05-08T12:37:41.930Z,101870.06
2023-05-08T12:40:18.812Z,101864.96
2023-05-08T12:42:47.915Z,101864.05
2023-05-08T12:45:26.154Z,101867.61
2023-05-08T12:47:55.078Z,101867.97
2023-05-08T12:50:23.482Z,101868.72
2023-05-08T12:52:52.119Z,101868.59
2023-05-08T12:55:27.440Z,101877.16
2023-05-08T12:58:06.139Z,101870.81
2023-05-08T13:00:41.259Z,101881.90
2023-05-08T13:03:10.530Z,101874.60
2023-05-08T13:05:39.995Z,101876.11
2023-05-08T13:08:12.271Z,101875.95
2023-05-08T13:10:50.614Z,101878.82
2023-05-08T13:13:20.603Z,101879.57
2023-05-08T13:15:49.341Z,101872.94
2023-05-08T13:18:17.800Z,101872.02
2023-05-08T13:20:46.442Z,101873.69
2023-05-08T13:23:15.088Z,101871.07
2023-05-08T13:25:43.530Z,101874.41
2023-05-08T13:28:12.408Z,101866.04
2023-05-08T13:30:40.605Z,101875.06
2023-05-08T13:33:09.004Z,101865.97
2023-05-08T13:35:37.545Z,101861.36
2023-05-08T13:38:05.843Z,101862.96
2023-05-08T13:40:34.335Z,101862.28
2023-05-08T13:43:02.866Z,101859.40
2023-05-08T13:45:31.214Z,101860.15
2023-05-08T13:47:59.443Z,101855.48
2023-05-08T13:50:27.570Z,101857.90
2023-05-08T13:52:55.752Z,101862.02
2023-05-08T13:55:24.292Z,101859.17
2023-05-08T13:57:52.571Z,101856.55
2023-05-08T14:00:21.562Z,101858.62
2023-05-08T14:02:52.310Z,101852.73
2023-05-08T14:05:21.517Z,101849.85
2023-05-08T14:07:49.853Z,101853.58
2023-05-08T14:10:18.736Z,101858.84
2023-05-08T14:12:48.042Z,101854.66
2023-05-08T14:15:16.516Z,101856.36
2023-05-08T14:17:45.239Z,101854.30
2023-05-08T14:20:13.731Z,101858.71
2023-05-08T14:22:41.970Z,101863.55
2023-05-08T14:25:10.775Z,101856.13
2023-05-08T14:27:39.080Z,101854.43
2023-05-08T14:30:08.114Z,101857.70
2023-05-08T14:32:36.570Z,101862.64
2023-05-08T14:35:05.208Z,101862.51
2023-05-08T14:37:33.585Z,101852.57
2023-05-08T14:40:01.758Z,101848.35
2023-05-08T14:42:30.153Z,101847.14
2023-05-08T14:44:58.450Z,101850.02
2023-05-08T14:47:27.314Z,101851.23
2023-05-08T14:49:55.568Z,101856.16
2023-05-08T14:52:23.898Z,101854.95
2023-05-08T14:54:54.599Z,101849.20
2023-05-08T14:57:23.038Z,101855.45
2023-05-08T15:02:23.360Z,101850.12
2023-05-08T15:04:51.822Z,101845.41
2023-05-08T15:07:19.984Z,101844.91
2023-05-08T15:09:49.361Z,101845.83
2023-05-08T15:12:17.551Z,101847.27
2023-05-08T15:14:45.557Z,101847.83
2023-05-08T15:17:13.713Z,101844.78
2023-05-08T15:19:42.135Z,101845.24
2023-05-08T15:22:10.448Z,101845.99
2023-05-08T15:24:38.705Z,101840.21
2023-05-08T15:27:07.035Z,101840.83
2023-05-08T15:29:35.416Z,101838.45
2023-05-08T15:32:03.819Z,101837.20
2023-05-08T15:34:33.046Z,101835.30
2023-05-08T15:37:01.532Z,101839.98
2023-05-08T15:39:29.717Z,101841.77
2023-05-08T15:41:57.949Z,101849.69
2023-05-08T15:44:28.789Z,101852.57
2023-05-08T15:47:02.618Z,101845.24
2023-05-08T15:49:30.792Z,101841.88
2023-05-08T15:51:58.886Z,101838.51
2023-05-08T15:54:27.134Z,101844.36
2023-05-08T15:56:55.375Z,101839.00
2023-05-08T15:59:23.684Z,101853.52
2023-05-08T16:01:52.999Z,101846.06
2023-05-08T16:04:21.989Z,101844.85
2023-05-08T16:06:50.409Z,101839.65
2023-05-08T16:09:18.557Z,101833.51
2023-05-08T16:11:46.878Z,101829.62
2023-05-08T16:14:15.229Z,101834.71
2023-05-08T16:16:43.567Z,101823.66
2023-05-08T16:19:11.759Z,101829.78
2023-05-08T16:21:40.023Z,101830.76
2023-05-08T16:24:08.675Z,101830.01
2023-05-08T16:26:36.791Z,101834.29
2023-05-08T16:29:04.989Z,101833.90
2023-05-08T16:31:33.133Z,101835.20
2023-05-08T16:34:01.472Z,101845.18
2023-05-08T16:36:29.707Z,101845.54
2023-05-08T16:38:57.921Z,101846.42
2023-05-08T16:41:26.143Z,101850.05
2023-05-08T16:43:54.184Z,101852.53
2023-05-08T16:46:29.867Z,101850.48
2023-05-08T16:48:58.829Z,101846.03
2023-05-08T16:51:27.047Z,101852.17
2023-05-08T16:53:56.731Z,101847.99
2023-05-08T16:56:26.274Z,101844.27
2023-05-08T16:58:54.471Z,101842.13
2023-05-08T17:01:22.747Z,101843.61
2023-05-08T17:03:51.078Z,101852.63
2023-05-08T17:06:19.356Z,101851.78
2023-05-08T17:08:48.211Z,101847.59
2023-05-08T17:11:16.372Z,101859.63
2023-05-08T17:13:44.848Z,101851.78
2023-05-08T17:16:13.114Z,101862.12
2023-05-08T17:18:41.334Z,101863.68
2023-05-08T17:21:09.796Z,101859.95
2023-05-08T17:23:37.884Z,101864.93
2023-05-08T17:26:06.174Z,101859.23
2023-05-08T17:28:34.537Z,101857.93
2023-05-08T17:31:02.877Z,101867.54
2023-05-08T17:33:30.985Z,101865.84
2023-05-08T17:35:59.162Z,101868.36
2023-05-08T17:38:27.775Z,101868.36
2023-05-08T17:40:55.874Z,101875.72
2023-05-08T17:43:23.901Z,101871.53
2023-05-08T17:45:51.980Z,101867.80
2023-05-08T17:48:19.978Z,101865.74
2023-05-08T17:50:48.432Z,101865.65
2023-05-08T17:53:16.444Z,101879.25
2023-05-08T17:55:44.577Z,101873.49
2023-05-08T17:58:12.559Z,101874.70
2023-05-08T18:00:40.690Z,101882.02
2023-05-08T18:03:09.021Z,101885.30
2023-05-08T18:05:37.206Z,101875.68
2023-05-08T18:08:05.704Z,101879.80
2023-05-08T18:10:36.036Z,101879.67
2023-05-08T18:13:04.225Z,101875.03
2023-05-08T18:15:32.341Z,101887.39
2023-05-08T18:18:00.538Z,101877.09
2023-05-08T18:20:28.575Z,101879.48
2023-05-08T18:22:56.870Z,101881.90
2023-05-08T18:25:25.080Z,101886.73
2023-05-08T18:27:53.196Z,101885.39
2023-05-08T18:30:21.186Z,101886.51
2023-05-08T18:32:49.222Z,101892.65
2023-05-08T18:35:17.409Z,101901.64
2023-05-08T18:37:45.499Z,101898.27
2023-05-08T18:40:14.405Z,101902.00
2023-05-08T18:42:42.627Z,101901.41
2023-05-08T18:45:11.360Z,101904.20
2023-05-08T18:47:39.356Z,101911.52
2023-05-08T18:50:08.040Z,101913.48
2023-05-08T18:52:36.106Z,101913.88
2023-05-08T18:55:04.185Z,101914.59
2023-05-08T18:57:32.327Z,101924.79
2023-05-08T19:00:00.392Z,101908.22
2023-05-08T19:02:29.641Z,101907.63
2023-05-08T19:04:57.815Z,101908.70
2023-05-08T19:07:25.892Z,101909.82
2023-05-08T19:09:55.550Z,101917.99
2023-05-08T19:12:23.743Z,101920.02
2023-05-08T19:14:52.410Z,101923.29
2023-05-08T19:17:20.631Z,101926.52
2023-05-08T19:19:48.764Z,101922.70
2023-05-08T19:22:16.770Z,101930.84
2023-05-08T19:24:44.843Z,101922.93
2023-05-08T19:27:13.095Z,101925.71
2023-05-08T19:29:41.175Z,101918.61
2023-05-08T19:32:09.245Z,101915.96
2023-05-08T19:34:39.857Z,101914.69
2023-05-08T19:37:07.928Z,101925.35
2023-05-08T19:39:36.111Z,101918.61
2023-05-08T19:42:04.167Z,101923.06
2023-05-08T19:44:33.986Z,101924.63
2023-05-08T19:47:03.948Z,101918.74
2023-05-08T19:49:32.383Z,101926.43
2023-05-08T19:52:00.477Z,101919.34
2023-05-08T19:54:28.494Z,101922.60
2023-05-08T19:56:57.398Z,101922.60
2023-05-08T19:59:25.490Z,101927.87
2023-05-08T20:01:54.239Z,101919.56
2023-05-08T20:04:22.328Z,101927.38
2023-05-08T20:06:50.281Z,101919.56
2023-05-08T20:09:18.545Z,101918.74
2023-05-08T20:11:46.582Z,101922.47
2023-05-08T20:14:15.513Z,101920.45
2023-05-08T20:16:44.150Z,101922.47
2023-05-08T20:19:12.326Z,101918.38
2023-05-08T20:21:40.503Z,101916.69
2023-05-08T20:24:08.611Z,101917.57
2023-05-08T20:26:36.672Z,101913.48
2023-05-08T20:29:04.944Z,101915.51
2023-05-08T20:31:33.587Z,101920.45
2023-05-08T20:34:01.702Z,101912.14
2023-05-08T20:36:30.063Z,101917.08
2023-05-08T20:38:58.684Z,101917.41
2023-05-08T20:41:26.857Z,101915.73
2023-05-08T20:43:54.885Z,101928.95
2023-05-08T20:46:23.071Z,101925.61
2023-05-08T20:48:52.555Z,101917.30
2023-05-08T20:51:20.642Z,101922.21
2023-05-08T20:53:48.713Z,101918.13
2023-05-08T20:56:18.956Z,101916.45
2023-05-08T20:58:47.517Z,101911.42
2023-05-08T21:01:15.513Z,101914.30
2023-05-08T21:03:43.945Z,101908.54
2023-05-08T21:06:12.371Z,101913.77
2023-05-08T21:08:41.229Z,101913.31
2023-05-08T21:11:09.237Z,101910.44
2023-05-08T21:13:37.182Z,101910.44
2023-05-08T21:16:06.967Z,101897.20
2023-05-08T21:18:35.112Z,101904.20
2023-05-08T21:21:03.167Z,101895.89
2023-05-08T21:23:32.463Z,101888.83
2023-05-08T21:26:00.670Z,101892.88
2023-05-08T21:28:28.852Z,101888.70
2023-05-08T21:30:56.900Z,101882.58
2023-05-08T21:33:25.023Z,101890.00
2023-05-08T21:35:53.060Z,101880.91
2023-05-08T21:38:21.107Z,101884.61
2023-05-08T21:40:49.172Z,101882.09
2023-05-08T21:43:17.383Z,101880.03
2023-05-08T21:45:45.364Z,101880.42
2023-05-08T21:48:13.378Z,101877.55
2023-05-08T21:50:41.355Z,101877.55
2023-05-08T21:53:09.461Z,101873.33
2023-05-08T21:55:37.928Z,101871.98
2023-05-08T21:58:05.926Z,101871.98
2023-05-08T22:00:34.019Z,101869.11
2023-05-08T22:03:02.454Z,101866.63
2023-05-08T22:05:30.655Z,101865.29
2023-05-08T22:07:58.648Z,101868.16
2023-05-08T22:10:27.271Z,101871.89
2023-05-08T22:12:55.442Z,101873.43
2023-05-08T22:15:29.909Z,101870.55
2023-05-08T22:17:58.687Z,101868.39
2023-05-08T22:20:27.217Z,101875.00
2023-05-08T22:22:55.536Z,101872.48
2023-05-08T22:25:23.596Z,101876.56
2023-05-08T22:27:51.559Z,101872.84
2023-05-08T22:30:19.556Z,101869.47
2023-05-08T22:32:50.404Z,101860.35
2023-05-08T22:35:18.399Z,101871.86
2023-05-08T22:37:46.356Z,101863.23
2023-05-08T22:40:14.763Z,101859.04
2023-05-08T22:42:43.078Z,101867.31
2023-05-08T22:45:12.134Z,101863.95
2023-05-08T22:47:40.450Z,101868.39
2023-05-08T22:50:10.472Z,101863.00
2023-05-08T22:52:38.819Z,101865.02
2023-05-08T22:55:07.286Z,101855.90
2023-05-08T22:57:35.240Z,101854.70
2023-05-08T23:00:03.368Z,101845.96
2023-05-08T23:02:35.114Z,101838.87
2023-05-08T23:05:03.596Z,101844.63
2023-05-08T23:07:31.623Z,101830.23
2023-05-08T23:09:59.689Z,101828.90
2023-05-08T23:12:27.700Z,101826.02
2023-05-08T23:14:56.109Z,101832.16
2023-05-08T23:17:24.102Z,101830.10
2023-05-08T23:19:52.411Z,101820.13
2023-05-08T23:22:20.429Z,101817.26
2023-05-08T23:24:49.474Z,101820.52
2023-05-08T23:27:17.499Z,101814.28
2023-05-08T23:29:45.475Z,101808.88
2023-05-08T23:32:14.359Z,101805.29
2023-05-08T23:34:45.345Z,101809.34
2023-05-08T23:37:13.371Z,101812.71
2023-05-08T23:39:42.648Z,101809.02
2023-05-08T23:42:10.729Z,101805.65
2023-05-08T23:44:38.829Z,101801.92
2023-05-08T23:47:06.905Z,101791.98
2023-05-08T23:49:34.980Z,101786.59
2023-05-08T23:52:02.948Z,101783.55
2023-05-08T23:54:30.928Z,101778.18
2023-05-08T23:56:59.004Z,101781.39
2023-05-08T23:59:27.091Z,101781.88
